sensor_id;sensor_type;location;lat;lon;timestamp;temperature;humidity
43185;DHT22;28803;52.308;19.096;2022-12-20T00:01:27;0.20;99.90
43185;DHT22;28803;52.308;19.096;2022-12-20T00:03:58;0.20;99.90
43185;DHT22;28803;52.308;19.096;2022-12-20T00:06:26;0.20;99.90
43185;DHT22;28803;52.308;19.096;2022-12-20T00:08:55;0.20;99.90
43185;DHT22;28803;52.308;19.096;2022-12-20T00:11:23;0.20;99.90
43185;DHT22;28803;52.308;19.096;2022-12-20T00:13:51;0.20;99.90
43185;DHT22;28803;52.308;19.096;2022-12-20T00:16:20;0.20;99.90
43185;DHT22;28803;52.308;19.096;2022-12-20T00:18:57;0.20;99.90
43185;DHT22;28803;52.308;19.096;2022-12-20T00:21:25;0.20;99.90
43185;DHT22;28803;52.308;19.096;2022-12-20T00:23:52;0.20;99.90
43185;DHT22;28803;52.308;19.096;2022-12-20T00:26:22;0.30;99.90
43185;DHT22;28803;52.308;19.096;2022-12-20T00:28:52;0.30;99.90
43185;DHT22;28803;52.308;19.096;2022-12-20T00:31:20;0.30;99.90
43185;DHT22;28803;52.308;19.096;2022-12-20T00:33:51;0.30;99.90
43185;DHT22;28803;52.308;19.096;2022-12-20T00:36:19;0.20;99.90
43185;DHT22;28803;52.308;19.096;2022-12-20T00:38:48;0.20;99.90
43185;DHT22;28803;52.308;19.096;2022-12-20T00:41:18;0.30;99.90
43185;DHT22;28803;52.308;19.096;2022-12-20T00:43:47;0.20;99.90
43185;DHT22;28803;52.308;19.096;2022-12-20T00:46:15;0.30;99.90
43185;DHT22;28803;52.308;19.096;2022-12-20T00:48:43;0.30;99.90
43185;DHT22;28803;52.308;19.096;2022-12-20T00:51:15;0.20;99.90
43185;DHT22;28803;52.308;19.096;2022-12-20T00:53:43;0.30;99.90
43185;DHT22;28803;52.308;19.096;2022-12-20T00:56:11;0.30;99.90
43185;DHT22;28803;52.308;19.096;2022-12-20T00:58:40;0.30;99.90
43185;DHT22;28803;52.308;19.096;2022-12-20T01:01:19;0.30;99.90
43185;DHT22;28803;52.308;19.096;2022-12-20T01:03:47;0.30;99.90
43185;DHT22;28803;52.308;19.096;2022-12-20T01:06:15;0.30;99.90
43185;DHT22;28803;52.308;19.096;2022-12-20T01:08:42;0.30;99.90
43185;DHT22;28803;52.308;19.096;2022-12-20T01:11:18;0.30;99.90
43185;DHT22;28803;52.308;19.096;2022-12-20T01:13:49;0.30;99.90
43185;DHT22;28803;52.308;19.096;2022-12-20T01:18:45;0.30;99.90
43185;DHT22;28803;52.308;19.096;2022-12-20T01:21:14;0.30;99.90
43185;DHT22;28803;52.308;19.096;2022-12-20T01:23:42;0.30;99.90
43185;DHT22;28803;52.308;19.096;2022-12-20T01:26:15;0.30;99.90
43185;DHT22;28803;52.308;19.096;2022-12-20T01:28:45;0.30;99.90
43185;DHT22;28803;52.308;19.096;2022-12-20T01:31:15;0.30;99.90
43185;DHT22;28803;52.308;19.096;2022-12-20T01:33:44;0.30;99.90
43185;DHT22;28803;52.308;19.096;2022-12-20T01:36:14;0.30;99.90
43185;DHT22;28803;52.308;19.096;2022-12-20T01:38:43;0.30;99.90
43185;DHT22;28803;52.308;19.096;2022-12-20T01:41:14;0.30;99.90
43185;DHT22;28803;52.308;19.096;2022-12-20T01:46:32;0.40;99.90
43185;DHT22;28803;52.308;19.096;2022-12-20T01:49:19;0.40;99.90
43185;DHT22;28803;52.308;19.096;2022-12-20T01:51:54;0.40;99.90
43185;DHT22;28803;52.308;19.096;2022-12-20T01:54:29;0.40;99.90
43185;DHT22;28803;52.308;19.096;2022-12-20T01:57:00;0.40;99.90
43185;DHT22;28803;52.308;19.096;2022-12-20T01:59:31;0.40;99.90
43185;DHT22;28803;52.308;19.096;2022-12-20T02:02:04;0.30;99.90
43185;DHT22;28803;52.308;19.096;2022-12-20T02:04:34;0.40;99.90
43185;DHT22;28803;52.308;19.096;2022-12-20T02:07:02;0.40;99.90
43185;DHT22;28803;52.308;19.096;2022-12-20T02:09:31;0.40;99.90
43185;DHT22;28803;52.308;19.096;2022-12-20T02:12:14;0.40;99.90
43185;DHT22;28803;52.308;19.096;2022-12-20T02:17:35;0.40;99.90
43185;DHT22;28803;52.308;19.096;2022-12-20T02:31:14;0.40;99.90
43185;DHT22;28803;52.308;19.096;2022-12-20T02:33:46;0.40;99.90
43185;DHT22;28803;52.308;19.096;2022-12-20T02:36:18;0.30;99.90
43185;DHT22;28803;52.308;19.096;2022-12-20T02:38:45;0.40;99.90
43185;DHT22;28803;52.308;19.096;2022-12-20T02:41:20;0.40;99.90
43185;DHT22;28803;52.308;19.096;2022-12-20T02:43:55;0.40;99.90
43185;DHT22;28803;52.308;19.096;2022-12-20T02:46:42;0.40;99.90
43185;DHT22;28803;52.308;19.096;2022-12-20T02:49:15;0.40;99.90
43185;DHT22;28803;52.308;19.096;2022-12-20T02:51:46;0.40;99.90
43185;DHT22;28803;52.308;19.096;2022-12-20T02:54:14;0.40;99.90
43185;DHT22;28803;52.308;19.096;2022-12-20T02:56:49;0.40;99.90
43185;DHT22;28803;52.308;19.096;2022-12-20T02:59:22;0.40;99.90
43185;DHT22;28803;52.308;19.096;2022-12-20T03:01:53;0.40;99.90
43185;DHT22;28803;52.308;19.096;2022-12-20T03:04:27;0.40;99.90
43185;DHT22;28803;52.308;19.096;2022-12-20T03:07:02;0.40;99.90
43185;DHT22;28803;52.308;19.096;2022-12-20T03:09:31;0.40;99.90
43185;DHT22;28803;52.308;19.096;2022-12-20T03:11:59;0.30;99.90
43185;DHT22;28803;52.308;19.096;2022-12-20T03:14:26;0.30;99.90
43185;DHT22;28803;52.308;19.096;2022-12-20T03:16:53;0.40;99.90
43185;DHT22;28803;52.308;19.096;2022-12-20T03:19:20;0.30;99.90
43185;DHT22;28803;52.308;19.096;2022-12-20T03:21:48;0.30;99.90
43185;DHT22;28803;52.308;19.096;2022-12-20T03:24:15;0.30;99.90
43185;DHT22;28803;52.308;19.096;2022-12-20T03:26:43;0.30;99.90
43185;DHT22;28803;52.308;19.096;2022-12-20T03:29:10;0.30;99.90
43185;DHT22;28803;52.308;19.096;2022-12-20T03:31:37;0.30;99.90
43185;DHT22;28803;52.308;19.096;2022-12-20T03:34:05;0.40;99.90
43185;DHT22;28803;52.308;19.096;2022-12-20T03:36:33;0.40;99.90
43185;DHT22;28803;52.308;19.096;2022-12-20T03:39:00;0.40;99.90
43185;DHT22;28803;52.308;19.096;2022-12-20T03:41:27;0.40;99.90
43185;DHT22;28803;52.308;19.096;2022-12-20T03:43:54;0.50;99.90
43185;DHT22;28803;52.308;19.096;2022-12-20T03:46:22;0.50;99.90
43185;DHT22;28803;52.308;19.096;2022-12-20T03:48:49;0.50;99.90
43185;DHT22;28803;52.308;19.096;2022-12-20T03:51:16;0.50;99.90
43185;DHT22;28803;52.308;19.096;2022-12-20T03:53:43;0.50;99.90
43185;DHT22;28803;52.308;19.096;2022-12-20T03:56:10;0.50;99.90
43185;DHT22;28803;52.308;19.096;2022-12-20T03:58:37;0.50;99.90
43185;DHT22;28803;52.308;19.096;2022-12-20T04:01:26;0.50;99.90
43185;DHT22;28803;52.308;19.096;2022-12-20T04:03:55;0.50;99.90
43185;DHT22;28803;52.308;19.096;2022-12-20T04:06:22;0.50;99.90
43185;DHT22;28803;52.308;19.096;2022-12-20T04:08:50;0.50;99.90
43185;DHT22;28803;52.308;19.096;2022-12-20T04:11:17;0.50;99.90
43185;DHT22;28803;52.308;19.096;2022-12-20T04:13:52;0.50;99.90
43185;DHT22;28803;52.308;19.096;2022-12-20T04:16:23;0.60;99.90
43185;DHT22;28803;52.308;19.096;2022-12-20T04:18:50;0.60;99.90
43185;DHT22;28803;52.308;19.096;2022-12-20T04:21:28;0.60;99.90
43185;DHT22;28803;52.308;19.096;2022-12-20T04:23:56;0.60;99.90
43185;DHT22;28803;52.308;19.096;2022-12-20T04:26:24;0.60;99.90
43185;DHT22;28803;52.308;19.096;2022-12-20T04:28:51;0.60;99.90
43185;DHT22;28803;52.308;19.096;2022-12-20T04:31:19;0.60;99.90
43185;DHT22;28803;52.308;19.096;2022-12-20T04:33:50;0.50;99.90
43185;DHT22;28803;52.308;19.096;2022-12-20T04:36:17;0.50;99.90
43185;DHT22;28803;52.308;19.096;2022-12-20T04:38:44;0.60;99.90
43185;DHT22;28803;52.308;19.096;2022-12-20T04:41:12;0.60;99.90
43185;DHT22;28803;52.308;19.096;2022-12-20T04:43:52;0.60;99.90
43185;DHT22;28803;52.308;19.096;2022-12-20T04:46:21;0.60;99.90
43185;DHT22;28803;52.308;19.096;2022-12-20T04:48:48;0.60;99.90
43185;DHT22;28803;52.308;19.096;2022-12-20T04:51:27;0.30;99.90
43185;DHT22;28803;52.308;19.096;2022-12-20T04:53:54;0.60;99.90
43185;DHT22;28803;52.308;19.096;2022-12-20T04:56:26;0.60;99.90
43185;DHT22;28803;52.308;19.096;2022-12-20T04:58:56;0.60;99.90
43185;DHT22;28803;52.308;19.096;2022-12-20T05:01:24;0.60;99.90
43185;DHT22;28803;52.308;19.096;2022-12-20T05:03:52;0.60;99.90
43185;DHT22;28803;52.308;19.096;2022-12-20T05:06:20;0.60;99.90
43185;DHT22;28803;52.308;19.096;2022-12-20T05:08:47;0.60;99.90
43185;DHT22;28803;52.308;19.096;2022-12-20T05:11:14;0.50;99.90
43185;DHT22;28803;52.308;19.096;2022-12-20T05:13:41;0.50;99.90
43185;DHT22;28803;52.308;19.096;2022-12-20T05:16:09;0.50;99.90
43185;DHT22;28803;52.308;19.096;2022-12-20T05:18:36;0.50;99.90
43185;DHT22;28803;52.308;19.096;2022-12-20T05:21:10;0.50;99.90
43185;DHT22;28803;52.308;19.096;2022-12-20T05:23:55;0.40;99.90
43185;DHT22;28803;52.308;19.096;2022-12-20T05:26:42;0.40;99.90
43185;DHT22;28803;52.308;19.096;2022-12-20T05:29:08;0.40;99.90
43185;DHT22;28803;52.308;19.096;2022-12-20T05:31:36;0.40;99.90
43185;DHT22;28803;52.308;19.096;2022-12-20T05:34:03;0.40;99.90
43185;DHT22;28803;52.308;19.096;2022-12-20T05:36:30;0.40;99.90
43185;DHT22;28803;52.308;19.096;2022-12-20T05:38:57;0.40;99.90
43185;DHT22;28803;52.308;19.096;2022-12-20T05:41:30;0.40;99.90
43185;DHT22;28803;52.308;19.096;2022-12-20T05:43:57;0.50;99.90
43185;DHT22;28803;52.308;19.096;2022-12-20T05:46:25;0.50;99.90
43185;DHT22;28803;52.308;19.096;2022-12-20T05:48:52;0.50;99.90
43185;DHT22;28803;52.308;19.096;2022-12-20T05:51:19;0.60;99.90
43185;DHT22;28803;52.308;19.096;2022-12-20T05:53:46;0.60;99.90
43185;DHT22;28803;52.308;19.096;2022-12-20T05:56:14;0.60;99.90
43185;DHT22;28803;52.308;19.096;2022-12-20T05:58:41;0.60;99.90
43185;DHT22;28803;52.308;19.096;2022-12-20T06:01:08;0.60;99.90
43185;DHT22;28803;52.308;19.096;2022-12-20T06:03:39;0.60;99.90
43185;DHT22;28803;52.308;19.096;2022-12-20T06:06:07;0.70;99.90
43185;DHT22;28803;52.308;19.096;2022-12-20T06:08:39;0.70;99.90
43185;DHT22;28803;52.308;19.096;2022-12-20T06:11:07;0.70;99.90
43185;DHT22;28803;52.308;19.096;2022-12-20T06:13:34;0.70;99.90
43185;DHT22;28803;52.308;19.096;2022-12-20T06:16:01;0.70;99.90
43185;DHT22;28803;52.308;19.096;2022-12-20T06:18:28;0.70;99.90
43185;DHT22;28803;52.308;19.096;2022-12-20T06:20:55;0.70;99.90
43185;DHT22;28803;52.308;19.096;2022-12-20T06:23:22;0.70;99.90
43185;DHT22;28803;52.308;19.096;2022-12-20T06:25:50;0.70;99.90
43185;DHT22;28803;52.308;19.096;2022-12-20T06:28:17;0.70;99.90
43185;DHT22;28803;52.308;19.096;2022-12-20T06:30:52;0.80;99.90
43185;DHT22;28803;52.308;19.096;2022-12-20T06:33:20;0.70;99.90
43185;DHT22;28803;52.308;19.096;2022-12-20T06:35:49;0.80;99.90
43185;DHT22;28803;52.308;19.096;2022-12-20T06:38:17;0.80;99.90
43185;DHT22;28803;52.308;19.096;2022-12-20T06:40:45;0.80;99.90
43185;DHT22;28803;52.308;19.096;2022-12-20T06:43:12;0.80;99.90
43185;DHT22;28803;52.308;19.096;2022-12-20T06:45:39;0.80;99.90
43185;DHT22;28803;52.308;19.096;2022-12-20T06:48:08;0.80;99.90
43185;DHT22;28803;52.308;19.096;2022-12-20T06:50:37;0.80;99.90
43185;DHT22;28803;52.308;19.096;2022-12-20T06:53:05;0.80;99.90
43185;DHT22;28803;52.308;19.096;2022-12-20T06:55:33;0.80;99.90
43185;DHT22;28803;52.308;19.096;2022-12-20T06:58:00;0.80;99.90
43185;DHT22;28803;52.308;19.096;2022-12-20T07:00:27;0.80;99.90
43185;DHT22;28803;52.308;19.096;2022-12-20T07:02:54;0.90;99.90
43185;DHT22;28803;52.308;19.096;2022-12-20T07:05:21;0.90;99.90
43185;DHT22;28803;52.308;19.096;2022-12-20T07:07:49;0.90;99.90
43185;DHT22;28803;52.308;19.096;2022-12-20T07:10:16;0.90;99.90
43185;DHT22;28803;52.308;19.096;2022-12-20T07:12:43;1.00;99.90
43185;DHT22;28803;52.308;19.096;2022-12-20T07:15:15;0.90;99.90
43185;DHT22;28803;52.308;19.096;2022-12-20T07:17:43;1.00;99.90
43185;DHT22;28803;52.308;19.096;2022-12-20T07:20:10;1.00;99.90
43185;DHT22;28803;52.308;19.096;2022-12-20T07:22:40;1.00;99.90
43185;DHT22;28803;52.308;19.096;2022-12-20T07:25:08;1.10;99.90
43185;DHT22;28803;52.308;19.096;2022-12-20T07:27:35;1.10;99.90
43185;DHT22;28803;52.308;19.096;2022-12-20T07:30:03;1.10;99.90
43185;DHT22;28803;52.308;19.096;2022-12-20T07:32:31;1.20;99.90
43185;DHT22;28803;52.308;19.096;2022-12-20T07:34:58;1.20;99.90
43185;DHT22;28803;52.308;19.096;2022-12-20T07:37:28;1.30;99.90
43185;DHT22;28803;52.308;19.096;2022-12-20T07:39:56;1.30;99.90
43185;DHT22;28803;52.308;19.096;2022-12-20T07:42:22;1.30;99.90
43185;DHT22;28803;52.308;19.096;2022-12-20T07:45:02;1.30;99.90
43185;DHT22;28803;52.308;19.096;2022-12-20T07:47:29;1.40;99.90
43185;DHT22;28803;52.308;19.096;2022-12-20T07:49:56;1.40;99.90
43185;DHT22;28803;52.308;19.096;2022-12-20T07:52:25;1.40;99.90
43185;DHT22;28803;52.308;19.096;2022-12-20T07:54:58;1.50;99.90
43185;DHT22;28803;52.308;19.096;2022-12-20T07:57:36;1.50;99.90
43185;DHT22;28803;52.308;19.096;2022-12-20T08:00:05;1.50;99.90
43185;DHT22;28803;52.308;19.096;2022-12-20T08:05:23;1.50;99.90
43185;DHT22;28803;52.308;19.096;2022-12-20T08:07:52;1.50;99.90
43185;DHT22;28803;52.308;19.096;2022-12-20T08:10:26;1.50;99.90
43185;DHT22;28803;52.308;19.096;2022-12-20T08:12:54;1.50;99.90
43185;DHT22;28803;52.308;19.096;2022-12-20T08:15:22;1.60;99.90
43185;DHT22;28803;52.308;19.096;2022-12-20T08:17:49;1.60;99.90
43185;DHT22;28803;52.308;19.096;2022-12-20T08:20:17;1.60;99.90
43185;DHT22;28803;52.308;19.096;2022-12-20T08:22:44;1.60;99.90
43185;DHT22;28803;52.308;19.096;2022-12-20T08:25:11;1.70;99.90
43185;DHT22;28803;52.308;19.096;2022-12-20T08:27:38;1.70;99.90
43185;DHT22;28803;52.308;19.096;2022-12-20T08:30:06;1.70;99.90
43185;DHT22;28803;52.308;19.096;2022-12-20T08:32:35;1.80;99.90
43185;DHT22;28803;52.308;19.096;2022-12-20T08:35:03;1.80;99.90
43185;DHT22;28803;52.308;19.096;2022-12-20T08:37:31;1.90;99.90
43185;DHT22;28803;52.308;19.096;2022-12-20T08:39:58;1.90;99.90
43185;DHT22;28803;52.308;19.096;2022-12-20T08:42:27;1.90;99.90
43185;DHT22;28803;52.308;19.096;2022-12-20T08:44:55;1.90;99.90
43185;DHT22;28803;52.308;19.096;2022-12-20T08:47:22;1.90;99.90
43185;DHT22;28803;52.308;19.096;2022-12-20T08:49:49;1.80;99.90
43185;DHT22;28803;52.308;19.096;2022-12-20T08:52:16;1.80;99.90
43185;DHT22;28803;52.308;19.096;2022-12-20T08:54:44;1.80;99.90
43185;DHT22;28803;52.308;19.096;2022-12-20T08:57:12;1.80;99.90
43185;DHT22;28803;52.308;19.096;2022-12-20T08:59:40;1.90;99.90
43185;DHT22;28803;52.308;19.096;2022-12-20T09:02:07;1.90;99.90
43185;DHT22;28803;52.308;19.096;2022-12-20T09:04:34;2.10;99.90
43185;DHT22;28803;52.308;19.096;2022-12-20T09:07:01;2.30;99.90
43185;DHT22;28803;52.308;19.096;2022-12-20T09:09:29;2.50;99.90
43185;DHT22;28803;52.308;19.096;2022-12-20T09:11:57;2.60;99.90
43185;DHT22;28803;52.308;19.096;2022-12-20T09:14:24;2.60;99.90
43185;DHT22;28803;52.308;19.096;2022-12-20T09:16:51;2.50;99.90
43185;DHT22;28803;52.308;19.096;2022-12-20T09:19:19;2.40;99.90
43185;DHT22;28803;52.308;19.096;2022-12-20T09:21:46;2.30;99.90
43185;DHT22;28803;52.308;19.096;2022-12-20T09:24:14;2.20;99.90
43185;DHT22;28803;52.308;19.096;2022-12-20T09:26:41;2.20;99.90
43185;DHT22;28803;52.308;19.096;2022-12-20T09:29:11;2.10;99.90
43185;DHT22;28803;52.308;19.096;2022-12-20T09:31:38;2.10;99.90
43185;DHT22;28803;52.308;19.096;2022-12-20T09:34:07;2.10;99.90
43185;DHT22;28803;52.308;19.096;2022-12-20T09:36:34;2.10;99.90
43185;DHT22;28803;52.308;19.096;2022-12-20T09:39:03;2.10;99.90
43185;DHT22;28803;52.308;19.096;2022-12-20T09:41:37;2.10;99.90
43185;DHT22;28803;52.308;19.096;2022-12-20T09:46:47;2.10;99.90
43185;DHT22;28803;52.308;19.096;2022-12-20T09:49:18;2.20;99.90
43185;DHT22;28803;52.308;19.096;2022-12-20T09:54:54;2.20;99.90
43185;DHT22;28803;52.308;19.096;2022-12-20T09:57:56;2.20;99.90
43185;DHT22;28803;52.308;19.096;2022-12-20T10:00:25;2.30;99.90
43185;DHT22;28803;52.308;19.096;2022-12-20T10:02:53;2.40;99.90
43185;DHT22;28803;52.308;19.096;2022-12-20T10:05:44;2.40;99.90
43185;DHT22;28803;52.308;19.096;2022-12-20T10:10:55;2.70;99.90
43185;DHT22;28803;52.308;19.096;2022-12-20T10:13:54;2.80;99.90
43185;DHT22;28803;52.308;19.096;2022-12-20T10:16:45;2.90;99.90
43185;DHT22;28803;52.308;19.096;2022-12-20T10:25:12;3.10;99.90
43185;DHT22;28803;52.308;19.096;2022-12-20T10:27:42;3.10;99.90
43185;DHT22;28803;52.308;19.096;2022-12-20T10:30:18;3.30;99.90
43185;DHT22;28803;52.308;19.096;2022-12-20T10:32:49;3.50;99.90
43185;DHT22;28803;52.308;19.096;2022-12-20T10:41:01;3.60;99.90
43185;DHT22;28803;52.308;19.096;2022-12-20T10:43:53;3.80;99.90
43185;DHT22;28803;52.308;19.096;2022-12-20T10:46:22;3.80;99.90
43185;DHT22;28803;52.308;19.096;2022-12-20T10:49:32;3.70;99.90
43185;DHT22;28803;52.308;19.096;2022-12-20T10:52:03;3.50;99.90
43185;DHT22;28803;52.308;19.096;2022-12-20T10:54:42;3.40;99.90
43185;DHT22;28803;52.308;19.096;2022-12-20T10:57:26;3.30;99.90
43185;DHT22;28803;52.308;19.096;2022-12-20T11:00:00;3.30;99.90
43185;DHT22;28803;52.308;19.096;2022-12-20T11:02:31;3.30;99.90
43185;DHT22;28803;52.308;19.096;2022-12-20T11:08:00;3.70;99.90
43185;DHT22;28803;52.308;19.096;2022-12-20T11:10:45;3.80;99.90
43185;DHT22;28803;52.308;19.096;2022-12-20T11:13:24;3.90;99.90
43185;DHT22;28803;52.308;19.096;2022-12-20T11:15:54;4.10;99.90
43185;DHT22;28803;52.308;19.096;2022-12-20T11:21:59;4.20;99.90
43185;DHT22;28803;52.308;19.096;2022-12-20T11:24:34;4.10;99.90
43185;DHT22;28803;52.308;19.096;2022-12-20T11:40:59;4.00;99.90
43185;DHT22;28803;52.308;19.096;2022-12-20T11:52:50;3.60;99.90
43185;DHT22;28803;52.308;19.096;2022-12-20T11:55:32;3.30;99.90
43185;DHT22;28803;52.308;19.096;2022-12-20T11:58:24;3.20;99.90
43185;DHT22;28803;52.308;19.096;2022-12-20T12:00:57;3.10;99.90
43185;DHT22;28803;52.308;19.096;2022-12-20T12:06:07;3.10;99.90
43185;DHT22;28803;52.308;19.096;2022-12-20T12:09:00;3.10;99.90
43185;DHT22;28803;52.308;19.096;2022-12-20T12:11:36;3.10;99.90
43185;DHT22;28803;52.308;19.096;2022-12-20T12:17:17;3.20;99.90
43185;DHT22;28803;52.308;19.096;2022-12-20T12:19:49;3.20;99.90
43185;DHT22;28803;52.308;19.096;2022-12-20T12:22:27;3.20;99.90
43185;DHT22;28803;52.308;19.096;2022-12-20T12:24:57;3.10;99.90
43185;DHT22;28803;52.308;19.096;2022-12-20T12:27:27;3.10;99.90
43185;DHT22;28803;52.308;19.096;2022-12-20T12:29:56;3.10;99.90
43185;DHT22;28803;52.308;19.096;2022-12-20T12:35:24;2.90;99.90
43185;DHT22;28803;52.308;19.096;2022-12-20T12:43:55;2.80;99.90
43185;DHT22;28803;52.308;19.096;2022-12-20T12:46:27;2.80;99.90
43185;DHT22;28803;52.308;19.096;2022-12-20T12:48:58;2.70;99.90
43185;DHT22;28803;52.308;19.096;2022-12-20T12:51:36;2.70;99.90
43185;DHT22;28803;52.308;19.096;2022-12-20T12:54:25;2.70;99.90
43185;DHT22;28803;52.308;19.096;2022-12-20T12:57:00;2.70;99.90
43185;DHT22;28803;52.308;19.096;2022-12-20T13:20:39;2.60;99.90
43185;DHT22;28803;52.308;19.096;2022-12-20T13:25:36;2.60;99.90
43185;DHT22;28803;52.308;19.096;2022-12-20T13:33:24;2.50;99.90
43185;DHT22;28803;52.308;19.096;2022-12-20T13:38:58;2.50;99.90
43185;DHT22;28803;52.308;19.096;2022-12-20T13:41:34;2.50;99.90
43185;DHT22;28803;52.308;19.096;2022-12-20T13:44:32;2.50;99.90
43185;DHT22;28803;52.308;19.096;2022-12-20T13:49:40;2.50;99.90
43185;DHT22;28803;52.308;19.096;2022-12-20T13:54:53;2.50;99.90
43185;DHT22;28803;52.308;19.096;2022-12-20T13:57:28;2.30;99.90
43185;DHT22;28803;52.308;19.096;2022-12-20T13:59:59;2.30;99.90
43185;DHT22;28803;52.308;19.096;2022-12-20T14:02:35;2.30;99.90
43185;DHT22;28803;52.308;19.096;2022-12-20T14:07:39;2.20;99.90
43185;DHT22;28803;52.308;19.096;2022-12-20T14:10:33;2.20;99.90
43185;DHT22;28803;52.308;19.096;2022-12-20T14:13:02;2.20;99.90
43185;DHT22;28803;52.308;19.096;2022-12-20T14:15:34;2.20;99.90
43185;DHT22;28803;52.308;19.096;2022-12-20T14:18:19;2.20;99.90
43185;DHT22;28803;52.308;19.096;2022-12-20T14:20:54;2.20;99.90
43185;DHT22;28803;52.308;19.096;2022-12-20T14:23:25;2.10;99.90
43185;DHT22;28803;52.308;19.096;2022-12-20T14:25:56;2.10;99.90
43185;DHT22;28803;52.308;19.096;2022-12-20T14:30:59;2.00;99.90
43185;DHT22;28803;52.308;19.096;2022-12-20T14:33:39;2.00;99.90
43185;DHT22;28803;52.308;19.096;2022-12-20T14:36:18;2.00;99.90
43185;DHT22;28803;52.308;19.096;2022-12-20T14:38:48;2.00;99.90
43185;DHT22;28803;52.308;19.096;2022-12-20T14:46:34;2.00;99.90
43185;DHT22;28803;52.308;19.096;2022-12-20T14:51:50;1.90;99.90
43185;DHT22;28803;52.308;19.096;2022-12-20T14:54:26;1.90;99.90
43185;DHT22;28803;52.308;19.096;2022-12-20T14:57:41;1.90;99.90
43185;DHT22;28803;52.308;19.096;2022-12-20T15:13:44;1.90;99.90
43185;DHT22;28803;52.308;19.096;2022-12-20T15:16:29;1.90;99.90
43185;DHT22;28803;52.308;19.096;2022-12-20T15:19:00;1.90;99.90
43185;DHT22;28803;52.308;19.096;2022-12-20T15:21:42;1.90;99.90
43185;DHT22;28803;52.308;19.096;2022-12-20T15:24:17;1.90;99.90
43185;DHT22;28803;52.308;19.096;2022-12-20T15:26:48;1.90;99.90
43185;DHT22;28803;52.308;19.096;2022-12-20T15:29:17;1.90;99.90
43185;DHT22;28803;52.308;19.096;2022-12-20T15:31:46;1.90;99.90
43185;DHT22;28803;52.308;19.096;2022-12-20T15:36:47;2.00;99.90
43185;DHT22;28803;52.308;19.096;2022-12-20T15:39:14;2.00;99.90
43185;DHT22;28803;52.308;19.096;2022-12-20T15:41:44;2.00;99.90
43185;DHT22;28803;52.308;19.096;2022-12-20T15:46:45;2.10;99.90
43185;DHT22;28803;52.308;19.096;2022-12-20T15:49:17;2.10;99.90
43185;DHT22;28803;52.308;19.096;2022-12-20T15:51:46;2.10;99.90
43185;DHT22;28803;52.308;19.096;2022-12-20T15:54:32;2.10;99.90
43185;DHT22;28803;52.308;19.096;2022-12-20T15:57:02;2.10;99.90
43185;DHT22;28803;52.308;19.096;2022-12-20T15:59:30;2.10;99.90
43185;DHT22;28803;52.308;19.096;2022-12-20T16:02:21;2.20;99.90
43185;DHT22;28803;52.308;19.096;2022-12-20T16:04:49;2.10;99.90
43185;DHT22;28803;52.308;19.096;2022-12-20T16:07:17;2.20;99.90
43185;DHT22;28803;52.308;19.096;2022-12-20T16:09:44;2.20;99.90
43185;DHT22;28803;52.308;19.096;2022-12-20T16:12:25;2.20;99.90
43185;DHT22;28803;52.308;19.096;2022-12-20T16:14:52;2.10;99.90
43185;DHT22;28803;52.308;19.096;2022-12-20T16:17:21;2.00;99.90
43185;DHT22;28803;52.308;19.096;2022-12-20T16:19:48;1.90;99.90
43185;DHT22;28803;52.308;19.096;2022-12-20T16:22:17;1.80;99.90
43185;DHT22;28803;52.308;19.096;2022-12-20T16:24:45;1.80;99.90
43185;DHT22;28803;52.308;19.096;2022-12-20T16:27:13;1.70;99.90
43185;DHT22;28803;52.308;19.096;2022-12-20T16:29:40;1.80;99.90
43185;DHT22;28803;52.308;19.096;2022-12-20T16:32:14;1.70;99.90
43185;DHT22;28803;52.308;19.096;2022-12-20T16:34:41;1.70;99.90
43185;DHT22;28803;52.308;19.096;2022-12-20T16:37:09;1.70;99.90
43185;DHT22;28803;52.308;19.096;2022-12-20T16:39:37;1.80;99.90
43185;DHT22;28803;52.308;19.096;2022-12-20T16:42:16;1.80;99.90
43185;DHT22;28803;52.308;19.096;2022-12-20T16:44:44;1.80;99.90
43185;DHT22;28803;52.308;19.096;2022-12-20T16:47:13;1.80;99.90
43185;DHT22;28803;52.308;19.096;2022-12-20T16:49:41;1.80;99.90
43185;DHT22;28803;52.308;19.096;2022-12-20T16:52:19;1.80;99.90
43185;DHT22;28803;52.308;19.096;2022-12-20T16:54:48;1.80;99.90
43185;DHT22;28803;52.308;19.096;2022-12-20T16:57:15;1.80;99.90
43185;DHT22;28803;52.308;19.096;2022-12-20T16:59:42;1.80;99.90
43185;DHT22;28803;52.308;19.096;2022-12-20T17:04:50;1.80;99.90
43185;DHT22;28803;52.308;19.096;2022-12-20T17:07:17;1.70;99.90
43185;DHT22;28803;52.308;19.096;2022-12-20T17:09:44;1.70;99.90
43185;DHT22;28803;52.308;19.096;2022-12-20T17:12:20;1.70;99.90
43185;DHT22;28803;52.308;19.096;2022-12-20T17:14:47;1.60;99.90
43185;DHT22;28803;52.308;19.096;2022-12-20T17:17:15;1.60;99.90
43185;DHT22;28803;52.308;19.096;2022-12-20T17:19:43;1.70;99.90
43185;DHT22;28803;52.308;19.096;2022-12-20T17:22:11;1.60;99.90
43185;DHT22;28803;52.308;19.096;2022-12-20T17:24:50;1.60;99.90
43185;DHT22;28803;52.308;19.096;2022-12-20T17:27:18;1.60;99.90
43185;DHT22;28803;52.308;19.096;2022-12-20T17:29:45;1.60;99.90
43185;DHT22;28803;52.308;19.096;2022-12-20T17:32:21;1.60;99.90
43185;DHT22;28803;52.308;19.096;2022-12-20T17:34:49;1.70;99.90
43185;DHT22;28803;52.308;19.096;2022-12-20T17:37:16;1.70;99.90
43185;DHT22;28803;52.308;19.096;2022-12-20T17:39:44;1.60;99.90
43185;DHT22;28803;52.308;19.096;2022-12-20T17:42:12;1.60;99.90
43185;DHT22;28803;52.308;19.096;2022-12-20T17:44:39;1.60;99.90
43185;DHT22;28803;52.308;19.096;2022-12-20T17:47:07;1.70;99.90
43185;DHT22;28803;52.308;19.096;2022-12-20T17:49:34;1.70;99.90
43185;DHT22;28803;52.308;19.096;2022-12-20T17:52:01;1.70;99.90
43185;DHT22;28803;52.308;19.096;2022-12-20T17:54:28;1.60;99.90
43185;DHT22;28803;52.308;19.096;2022-12-20T17:57:14;1.60;99.90
43185;DHT22;28803;52.308;19.096;2022-12-20T17:59:42;1.60;99.90
43185;DHT22;28803;52.308;19.096;2022-12-20T18:02:23;1.50;99.90
43185;DHT22;28803;52.308;19.096;2022-12-20T18:04:52;1.50;99.90
43185;DHT22;28803;52.308;19.096;2022-12-20T18:07:19;1.50;99.90
43185;DHT22;28803;52.308;19.096;2022-12-20T18:09:47;1.50;99.90
43185;DHT22;28803;52.308;19.096;2022-12-20T18:12:16;1.50;99.90
43185;DHT22;28803;52.308;19.096;2022-12-20T18:14:43;1.50;99.90
43185;DHT22;28803;52.308;19.096;2022-12-20T18:17:11;1.50;99.90
43185;DHT22;28803;52.308;19.096;2022-12-20T18:19:38;1.60;99.90
43185;DHT22;28803;52.308;19.096;2022-12-20T18:22:06;1.50;99.90
43185;DHT22;28803;52.308;19.096;2022-12-20T18:24:34;1.50;99.90
43185;DHT22;28803;52.308;19.096;2022-12-20T18:27:01;1.50;99.90
43185;DHT22;28803;52.308;19.096;2022-12-20T18:29:28;1.50;99.90
43185;DHT22;28803;52.308;19.096;2022-12-20T18:31:56;1.50;99.90